• Join FlightAware (Why Join?)
  • Login
  • US Flag 
08:22PM EDT


 

Airport Tracker/Info


-or-


 

Live Flight TrackerFlight Track Log ✈ CCA4491 ✈ 15-Oct-2013 ✈ ZUUU / CTU - ZUJZ / JZH

Flight Track Log - Related Links

Times and Time Zones

All times are in EDT time to prevent confusion due to time zone crossing. See the CCA4491 flight status page for this flight to view local times or setup timezone preferences in your user account.

Time Position Orientation Groundspeed Altitude Reporting Facility
EDT Latitude Longitude Course Direction KTS MPH feet Rate Location/Type
08:59PM 30.5660 103.9410 360° North 70 81  Level FlightAware
08:59PM 30.5760 103.9460 23° Northeast 145 167 3,360 Level FlightAware
08:59PM 30.5900 103.9520 20° North 153 176 2,200 4,500 Climbing FlightAware
09:00PM 30.6060 103.9600 23° Northeast 150 173 3,300 2,520 Climbing FlightAware
09:00PM 30.6160 103.9640 19° North 152 175 3,900 2,340 Climbing FlightAware
09:00PM 30.6280 103.9700 23° Northeast 153 176 4,600 1,680 Climbing FlightAware
09:01PM 30.6420 103.9770 23° Northeast 176 203 5,000 1,200 Climbing FlightAware
09:01PM 30.6580 103.9840 21° North 201 231 5,400 1,320 Climbing FlightAware
09:01PM 30.6810 103.9950 22° Northeast 234 269 6,000 1,500 Climbing FlightAware
09:01PM 30.6930 104.0020 27° Northeast 250 288 6,300 1,620 Climbing FlightAware
09:02PM 30.6980 104.0070 41° Northeast 258 297 6,500 2,100 Climbing FlightAware
09:02PM 30.7050 104.0150 44° Northeast 266 306 6,800 2,460 Climbing FlightAware
09:02PM 30.7200 104.0320 44° Northeast 273 314 7,500 2,760 Climbing FlightAware
09:02PM 30.7300 104.0420 41° Northeast 277 319 8,000 2,400 Climbing FlightAware
09:02PM 30.7390 104.0520 44° Northeast 282 325 8,300 1,620 Climbing FlightAware
09:02PM 30.7450 104.0610 52° Northeast 283 326 8,500 600 Climbing FlightAware
09:03PM 30.7560 104.0890 65° Northeast 284 327 8,600 600 Climbing FlightAware
09:03PM 30.7680 104.1170 63° Northeast 283 326 8,900 1,800 Climbing FlightAware
09:03PM 30.7800 104.1490 66° East 293 337 9,900 2,880 Climbing FlightAware
09:04PM 30.7980 104.1980 67° East 298 343 11,600 2,640 Climbing FlightAware
09:05PM 30.8190 104.2510 65° Northeast 314 361 13,000 2,040 Climbing FlightAware
09:05PM 30.8420 104.3020 62° Northeast 337 388 14,000 1,860 Climbing FlightAware
09:06PM 30.8750 104.3570 55° Northeast 354 407 15,200 2,100 Climbing FlightAware
09:06PM 30.9100 104.4170 56° Northeast 360 414 16,600 1,920 Climbing FlightAware
09:07PM 30.9240 104.4330 44° Northeast 367 422 16,800 1,260 Climbing FlightAware
09:07PM 30.9490 104.4470 26° Northeast 366 421 17,200 1,260 Climbing FlightAware
09:07PM 30.9690 104.4500 North 366 421 17,400 720 Climbing FlightAware
09:08PM 31.0170 104.4460 356° North 378 435 17,700 360 Climbing FlightAware
09:08PM 31.0850 104.4400 356° North 380 437 17,800 840 Climbing FlightAware
09:09PM 31.1400 104.4370 357° North 380 437 18,700 2,700 Climbing FlightAware
09:09PM 31.2000 104.4340 358° North 346 398 20,900 2,700 Climbing FlightAware
09:10PM 31.2560 104.4320 358° North 352 405 21,900 1,800 Climbing FlightAware
09:10PM 31.3110 104.4300 358° North 351 404 23,000 1,500 Climbing FlightAware
09:11PM 31.3680 104.4280 358° North 358 412 23,600 480 Climbing FlightAware
09:12PM 31.4290 104.4250 358° North 356 410 23,600  Level FlightAware
09:12PM 31.4880 104.4220 358° North 356 410 23,600  Level FlightAware
09:13PM 31.5450 104.4190 357° North 355 409 23,600  Level FlightAware
09:13PM 31.6050 104.4160 358° North 363 418 23,600  Level FlightAware
09:14PM 31.6590 104.4140 358° North 370 426 23,600  Level FlightAware
09:15PM 31.7200 104.4110 358° North 372 428 23,600  Level FlightAware
09:15PM 31.7830 104.4070 357° North 372 428 23,600  Level FlightAware
09:16PM 31.8390 104.4040 357° North 375 432 23,600  Level FlightAware
09:16PM 31.9040 104.4010 358° North 368 423 23,600  Level FlightAware
09:17PM 31.9650 104.3980 358° North 362 417 23,600  Level FlightAware
09:17PM 32.0120 104.3960 358° North 362 417 23,600  Level FlightAware
09:18PM 32.0660 104.3930 357° North 361 415 23,600  Level FlightAware
09:19PM 32.1290 104.3890 357° North 362 417 23,600  Level FlightAware
09:19PM 32.1870 104.3750 348° North 356 410 23,600  Level FlightAware
09:20PM 32.2390 104.3610 347° North 358 412 23,600  Level FlightAware
09:20PM 32.2980 104.3460 348° North 359 413 23,600  Level FlightAware
09:21PM 32.3530 104.3310 347° North 358 412 23,600  Level FlightAware
09:21PM 32.4130 104.3120 345° North 348 400 23,600  Level FlightAware
09:22PM 32.4390 104.2920 327° Northwest 347 399 23,600  Level FlightAware
09:22PM 32.4520 104.2740 311° West 346 398 23,600  Level FlightAware
09:23PM 32.4860 104.2210 307° West 346 398 23,600  Level FlightAware
09:23PM 32.5150 104.1750 307° West 346 398 23,600  Level FlightAware
09:24PM 32.5450 104.1280 307° West 346 398 23,600  Level FlightAware
09:24PM 32.5740 104.0820 307° West 346 398 23,600  Level FlightAware
09:25PM 32.6050 104.0330 307° West 346 398 23,600  Level FlightAware
09:26PM 32.6350 103.9870 308° West 346 398 23,600  Level FlightAware
09:28PM 32.8570 103.6830 311° West  Level Estimated